ROMMA est une association bénévole à but non lucratif. Votre soutien est indispensable : ADHERER à ROMMA ou FAIRE un DON

Crempigny-Bonneguête - (74, Haute-Savoie)

Albanais-Montagne des Princes (500 m)   Longitude: 05° 54' 5" E   Latitude: 45° 57' 0" N Station partenaire n°10
 

Détail journalier du     <<     >>

Température Precipitation Humidité Pression Vent Dir Rafale Dir. rafale Ensol. 20 cm au dessus du sol
Heure (°C) (mm) (%) (hPa) (km/h) (km/h) (min) (°C)
01:00 3.8066101711ONO16O02.8
02:00 3.3068101711ONO18NO02.2
03:00 2.9066101712ONO19ONO02.2
04:00 2.6064101716ONO27ONO01.7
05:00 2.1063101714NO23NO01.1
06:00 1.5064101713NO21NO00.6
07:00 1.3061101712NO18ONO00.6
08:00 1.806110189NO16ONO01.1
09:00 2.6061101710NO19NO151.7
10:00 4.105810177N21NNE505.6
11:00 5.205710188NO18N607.2
12:00 6.305310188NO19NO608.9
13:00 7.905310178NNE21NNE6010.6
14:00 9.105210178NO23N6011.7
15:00 10.204710178NO23NO6012.8
16:00 10.104510179NE27NNE5511.7
17:00 10.3046101710NE24NE4011.7
18:00 10.8047101711NE31NE5512.2
19:00 8.3055101813NNE29N407.8
20:00 6.6063102014NNE34NE06.1
21:00 5.6065102013N29NNE05.0
22:00 4.7071102011NNO24N03.9
23:00 4.1074102011N27NNE03.3
minuit 3.607710219NO24N02.8

Graphique du 14-04-2019

 

Serveur OMMA